createdAt,value
2023-03-29T00:00:44.328Z,98864.87
2023-03-29T00:01:48.274Z,98868.41
2023-03-29T00:02:51.718Z,98864.87
2023-03-29T00:03:54.713Z,98863.47
2023-03-29T00:04:58.301Z,98868.03
2023-03-29T00:06:05.959Z,98873.59
2023-03-29T00:07:09.445Z,98861.12
2023-03-29T00:08:14.903Z,98863.47
2023-03-29T00:09:18.451Z,98866.44
2023-03-29T00:10:24.288Z,98867.44
2023-03-29T00:11:27.612Z,98860.72
2023-03-29T00:12:31.146Z,98867.25
2023-03-29T00:13:33.826Z,98869.22
2023-03-29T00:14:36.603Z,98874.38
2023-03-29T00:15:39.384Z,98858.34
2023-03-29T00:16:42.418Z,98873.78
2023-03-29T00:17:45.233Z,98866.44
2023-03-29T00:18:48.047Z,98869.81
2023-03-29T00:19:50.748Z,98866.84
2023-03-29T00:20:58.474Z,98866.84
2023-03-29T00:22:02.193Z,98865.28
2023-03-29T00:23:04.909Z,98860.13
2023-03-29T00:24:07.808Z,98864.47
2023-03-29T00:25:12.283Z,98869.22
2023-03-29T00:26:15.063Z,98867.81
2023-03-29T00:27:18.071Z,98865.44
2023-03-29T00:28:20.926Z,98870.78
2023-03-29T00:29:23.819Z,98876.34
2023-03-29T00:30:26.444Z,98875.94
2023-03-29T00:31:29.106Z,98874.56
2023-03-29T00:32:33.185Z,98864.44
2023-03-29T00:33:36.932Z,98871.59
2023-03-29T00:34:42.818Z,98877.72
2023-03-29T00:35:46.425Z,98866.47
2023-03-29T00:36:53.241Z,98865.06
2023-03-29T00:37:58.117Z,98870.03
2023-03-29T00:39:00.936Z,98865.25
2023-03-29T00:40:09.889Z,98870.81
2023-03-29T00:41:13.825Z,98878.72
2023-03-29T00:42:17.441Z,98868.22
2023-03-29T00:43:20.209Z,98869.25
2023-03-29T00:45:02.042Z,98868.81
2023-03-29T00:46:05.863Z,98861.69
2023-03-29T00:47:08.807Z,98863.09
2023-03-29T00:48:16.108Z,98863.88
2023-03-29T00:49:18.924Z,98861.50
2023-03-29T00:50:36.508Z,98868.03
2023-03-29T00:51:41.604Z,98860.13
2023-03-29T00:52:51.647Z,98866.47
2023-03-29T00:53:59.070Z,98857.34
2023-03-29T00:55:08.281Z,98866.25
2023-03-29T00:56:14.498Z,98863.28
2023-03-29T00:57:20.504Z,98858.94
2023-03-29T00:58:29.810Z,98862.69
2023-03-29T00:59:35.804Z,98858.31
2023-03-29T01:00:47.634Z,98860.69
2023-03-29T01:01:54.801Z,98861.50
2023-03-29T01:03:00.060Z,98856.75
2023-03-29T01:04:18.275Z,98861.09
2023-03-29T01:05:29.818Z,98859.50
2023-03-29T01:06:36.026Z,98857.53
2023-03-29T01:07:53.811Z,98857.34
2023-03-29T01:09:03.256Z,98853.59
2023-03-29T01:10:12.658Z,98843.91
2023-03-29T01:11:20.221Z,98842.72
2023-03-29T01:12:26.741Z,98840.56
2023-03-29T01:13:39.620Z,98842.50
2023-03-29T01:14:50.056Z,98831.84
2023-03-29T01:15:54.729Z,98844.47
2023-03-29T01:16:57.677Z,98836.00
2023-03-29T01:18:02.096Z,98835.19
2023-03-29T01:19:08.507Z,98829.06
2023-03-29T01:20:23.672Z,98829.47
2023-03-29T01:21:49.607Z,98830.62
2023-03-29T01:23:31.061Z,98830.62
2023-03-29T01:25:07.546Z,98831.03
2023-03-29T01:26:23.143Z,98826.28
2023-03-29T01:27:51.963Z,98830.81
2023-03-29T01:29:10.275Z,98828.06
2023-03-29T01:30:18.999Z,98829.84
2023-03-29T01:31:30.808Z,98820.75
2023-03-29T01:32:50.797Z,98818.75
2023-03-29T01:34:10.144Z,98820.09
2023-03-29T01:35:23.055Z,98821.69
2023-03-29T01:36:50.414Z,98824.88
2023-03-29T01:37:59.096Z,98818.34
2023-03-29T01:39:07.309Z,98825.09
2023-03-29T01:40:11.547Z,98827.66
2023-03-29T01:41:14.722Z,98824.09
2023-03-29T01:42:42.433Z,98815.78
2023-03-29T01:43:54.063Z,98821.91
2023-03-29T01:45:08.205Z,98815.72
2023-03-29T01:46:35.727Z,98818.31
2023-03-29T01:48:04.483Z,98825.03
2023-03-29T01:49:16.937Z,98819.13
2023-03-29T01:50:32.960Z,98811.81
2023-03-29T01:51:52.689Z,98817.13
2023-03-29T01:53:04.571Z,98821.09
2023-03-29T01:54:26.616Z,98826.28
2023-03-29T01:55:34.423Z,98819.50
2023-03-29T01:56:42.026Z,98823.44
2023-03-29T01:57:47.212Z,98830.75
2023-03-29T01:58:54.418Z,98829.38
2023-03-29T01:59:59.320Z,98831.12
2023-03-29T02:01:10.187Z,98825.44
2023-03-29T02:02:16.260Z,98833.34
2023-03-29T02:03:22.094Z,98836.50
2023-03-29T02:04:31.713Z,98837.88
2023-03-29T02:05:36.180Z,98839.28
2023-03-29T02:06:41.159Z,98834.31
2023-03-29T02:07:46.734Z,98842.22
2023-03-29T02:08:53.376Z,98839.03
2023-03-29T02:09:58.511Z,98833.91
2023-03-29T02:11:02.003Z,98831.19
2023-03-29T02:12:07.561Z,98834.53
2023-03-29T02:13:10.741Z,98844.53
2023-03-29T02:14:14.232Z,98837.88
2023-03-29T02:15:20.036Z,98834.31
2023-03-29T02:16:23.398Z,98828.78
2023-03-29T02:17:28.231Z,98836.31
2023-03-29T02:18:31.617Z,98836.31
2023-03-29T02:19:34.674Z,98831.75
2023-03-29T02:20:40.815Z,98835.69
2023-03-29T02:21:48.602Z,98835.31
2023-03-29T02:23:14.681Z,98829.16
2023-03-29T02:24:19.579Z,98826.97
2023-03-29T02:25:22.832Z,98829.50
2023-03-29T02:26:26.589Z,98830.88
2023-03-29T02:27:30.251Z,98826.38
2023-03-29T02:28:33.684Z,98832.69
2023-03-29T02:29:36.886Z,98830.72
2023-03-29T02:30:51.089Z,98827.69
2023-03-29T02:31:55.914Z,98825.59
2023-03-29T02:33:10.992Z,98828.31
2023-03-29T02:34:20.875Z,98825.34
2023-03-29T02:35:38.824Z,98822.38
2023-03-29T02:37:08.648Z,98819.59
2023-03-29T02:38:11.945Z,98816.84
2023-03-29T02:39:18.082Z,98824.47
2023-03-29T02:40:24.191Z,98830.97
2023-03-29T02:41:27.906Z,98833.06
2023-03-29T02:42:31.753Z,98823.78
2023-03-29T02:43:36.329Z,98831.03
2023-03-29T02:44:42.184Z,98830.47
2023-03-29T02:45:46.303Z,98831.41
2023-03-29T02:46:53.527Z,98831.28
2023-03-29T02:48:01.124Z,98833.06
2023-03-29T02:49:05.518Z,98838.09
2023-03-29T02:50:09.208Z,98836.31
2023-03-29T02:51:21.552Z,98835.53
2023-03-29T02:52:29.771Z,98842.53
2023-03-29T02:53:41.611Z,98839.16
2023-03-29T02:54:48.818Z,98841.91
2023-03-29T02:55:53.062Z,98836.91
2023-03-29T02:57:01.983Z,98833.56
2023-03-29T02:58:08.661Z,98843.69
2023-03-29T02:59:12.697Z,98838.56
2023-03-29T03:00:19.937Z,98841.25
2023-03-29T03:01:23.286Z,98842.84
2023-03-29T03:02:28.044Z,98846.00
2023-03-29T03:03:32.137Z,98852.94
2023-03-29T03:04:35.854Z,98846.47
2023-03-29T03:05:39.478Z,98851.22
2023-03-29T03:06:42.822Z,98851.19
2023-03-29T03:07:46.389Z,98850.19
2023-03-29T03:08:49.359Z,98853.31
2023-03-29T03:09:52.956Z,98850.37
2023-03-29T03:10:56.016Z,98849.00
2023-03-29T03:11:58.975Z,98847.97
2023-03-29T03:13:02.360Z,98847.97
2023-03-29T03:14:06.480Z,98852.69
2023-03-29T03:15:09.869Z,98852.69
2023-03-29T03:16:12.905Z,98843.19
2023-03-29T03:17:16.013Z,98844.84
2023-03-29T03:18:19.143Z,98846.19
2023-03-29T03:19:22.022Z,98842.66
2023-03-29T03:20:25.224Z,98846.00
2023-03-29T03:21:28.478Z,98848.19
2023-03-29T03:22:32.586Z,98847.78
2023-03-29T03:23:35.648Z,98852.31
2023-03-29T03:24:38.500Z,98848.19
2023-03-29T03:25:41.536Z,98846.00
2023-03-29T03:26:46.851Z,98854.09
2023-03-29T03:27:50.838Z,98846.62
2023-03-29T03:28:53.784Z,98853.31
2023-03-29T03:29:56.742Z,98850.34
2023-03-29T03:30:59.791Z,98855.09
2023-03-29T03:32:04.524Z,98855.88
2023-03-29T03:33:08.082Z,98859.78
2023-03-29T03:34:11.485Z,98851.94
2023-03-29T03:35:14.469Z,98862.22
2023-03-29T03:36:17.296Z,98857.91
2023-03-29T03:37:20.387Z,98850.72
2023-03-29T03:38:24.113Z,98856.44
2023-03-29T03:39:27.521Z,98849.97
2023-03-29T03:40:30.683Z,98857.22
2023-03-29T03:41:34.820Z,98858.41
2023-03-29T03:42:41.935Z,98857.44
2023-03-29T03:43:49.276Z,98856.81
2023-03-29T03:44:52.250Z,98860.63
2023-03-29T03:45:56.691Z,98858.84
2023-03-29T03:46:59.632Z,98860.59
2023-03-29T03:48:02.550Z,98862.78
2023-03-29T03:49:09.449Z,98861.44
2023-03-29T03:50:12.319Z,98867.59
2023-03-29T03:51:15.536Z,98855.09
2023-03-29T03:52:19.516Z,98858.22
2023-03-29T03:53:23.882Z,98861.00
2023-03-29T03:54:27.386Z,98858.06
2023-03-29T03:55:30.377Z,98867.72
2023-03-29T03:56:34.472Z,98862.97
2023-03-29T03:57:38.270Z,98863.97
2023-03-29T03:58:41.440Z,98857.81
2023-03-29T03:59:45.036Z,98857.47
2023-03-29T04:00:50.323Z,98864.00
2023-03-29T04:01:53.903Z,98856.94
2023-03-29T04:02:56.868Z,98864.78
2023-03-29T04:03:59.965Z,98862.44
2023-03-29T04:05:03.627Z,98863.66
2023-03-29T04:06:06.884Z,98857.53
2023-03-29T04:07:11.824Z,98859.31
2023-03-29T04:08:15.336Z,98861.91
2023-03-29T04:09:18.853Z,98864.84
2023-03-29T04:10:21.866Z,98864.84
2023-03-29T04:11:24.818Z,98865.47
2023-03-29T04:12:27.776Z,98867.81
2023-03-29T04:13:31.058Z,98861.88
2023-03-29T04:14:34.095Z,98870.00
2023-03-29T04:15:39.890Z,98868.19
2023-03-29T04:16:42.836Z,98868.78
2023-03-29T04:17:45.957Z,98864.84
2023-03-29T04:18:49.176Z,98870.38
2023-03-29T04:19:52.110Z,98861.28
2023-03-29T04:20:55.136Z,98864.00
2023-03-29T04:21:58.129Z,98864.84
2023-03-29T04:23:01.325Z,98865.63
2023-03-29T04:24:04.259Z,98868.97
2023-03-29T04:25:08.573Z,98864.63
2023-03-29T04:26:12.395Z,98864.66
2023-03-29T04:27:15.546Z,98868.44
2023-03-29T04:28:18.608Z,98868.50
2023-03-29T04:29:22.168Z,98864.97
2023-03-29T04:30:25.575Z,98860.50
2023-03-29T04:31:28.516Z,98863.81
2023-03-29T04:32:31.580Z,98868.22
2023-03-29T04:33:34.377Z,98858.41
2023-03-29T04:34:37.323Z,98866.09
2023-03-29T04:35:40.349Z,98869.34
2023-03-29T04:36:43.851Z,98868.78
2023-03-29T04:37:46.714Z,98868.22
2023-03-29T04:38:52.528Z,98868.72
2023-03-29T04:39:55.867Z,98874.25
2023-03-29T04:41:01.547Z,98869.59
2023-03-29T04:42:05.558Z,98876.25
2023-03-29T04:43:08.354Z,98878.16
2023-03-29T04:44:11.168Z,98874.84
2023-03-29T04:45:20.056Z,98873.84
2023-03-29T04:46:26.916Z,98878.06
2023-03-29T04:47:30.150Z,98871.66
2023-03-29T04:48:33.757Z,98879.97
2023-03-29T04:49:36.577Z,98873.66
2023-03-29T04:50:39.401Z,98877.97
2023-03-29T04:51:42.581Z,98880.75
2023-03-29T04:52:46.056Z,98883.72
2023-03-29T04:53:50.526Z,98875.28
2023-03-29T04:54:53.403Z,98887.94
2023-03-29T04:55:58.164Z,98880.66
2023-03-29T04:57:01.256Z,98885.19
2023-03-29T04:58:05.088Z,98886.59
2023-03-29T04:59:08.104Z,98888.59
2023-03-29T05:00:15.675Z,98894.34
2023-03-29T05:01:18.906Z,98893.19
2023-03-29T05:02:22.248Z,98890.25
2023-03-29T05:03:25.803Z,98881.59
2023-03-29T05:04:29.167Z,98882.78
2023-03-29T05:05:32.080Z,98885.94
2023-03-29T05:06:34.964Z,98883.00
2023-03-29T05:07:38.225Z,98881.84
2023-03-29T05:08:41.258Z,98891.91
2023-03-29T05:09:44.601Z,98891.50
2023-03-29T05:10:47.839Z,98890.88
2023-03-29T05:11:51.019Z,98889.94
2023-03-29T05:12:54.451Z,98892.50
2023-03-29T05:14:02.516Z,98897.84
2023-03-29T05:15:06.285Z,98899.25
2023-03-29T05:16:11.516Z,98907.97
2023-03-29T05:17:14.662Z,98894.50
2023-03-29T05:18:17.800Z,98892.31
2023-03-29T05:19:23.939Z,98898.69
2023-03-29T05:20:27.311Z,98895.13
2023-03-29T05:21:30.379Z,98891.75
2023-03-29T05:22:33.264Z,98890.38
2023-03-29T05:23:36.441Z,98896.72
2023-03-29T05:24:39.482Z,98890.19
2023-03-29T05:25:44.209Z,98889.41
2023-03-29T05:26:52.167Z,98882.09
2023-03-29T05:27:55.039Z,98887.78
2023-03-29T05:28:57.940Z,98883.84
2023-03-29T05:30:02.245Z,98881.88
2023-03-29T05:31:06.565Z,98883.06
2023-03-29T05:32:10.160Z,98877.94
2023-03-29T05:33:13.220Z,98879.09
2023-03-29T05:34:16.272Z,98877.72
2023-03-29T05:35:19.304Z,98876.72
2023-03-29T05:36:22.260Z,98881.50
2023-03-29T05:37:26.830Z,98890.38
2023-03-29T05:38:30.459Z,98885.63
2023-03-29T05:39:35.749Z,98887.00
2023-03-29T05:40:41.971Z,98887.56
2023-03-29T05:41:45.644Z,98881.44
2023-03-29T05:42:48.434Z,98889.34
2023-03-29T05:43:51.530Z,98894.31
2023-03-29T05:44:54.978Z,98888.97
2023-03-29T05:45:57.995Z,98887.56
2023-03-29T05:47:00.800Z,98885.97
2023-03-29T05:48:07.116Z,98880.03
2023-03-29T05:49:10.151Z,98880.59
2023-03-29T05:50:13.243Z,98883.72
2023-03-29T05:51:16.233Z,98884.94
2023-03-29T05:52:19.923Z,98890.50
2023-03-29T05:53:25.655Z,98890.31
2023-03-29T05:54:28.552Z,98899.41
2023-03-29T05:55:31.484Z,98893.84
2023-03-29T05:56:34.648Z,98900.38
2023-03-29T05:57:40.794Z,98898.44
2023-03-29T05:58:43.848Z,98899.44
2023-03-29T05:59:47.188Z,98900.44
2023-03-29T06:00:51.511Z,98904.13
2023-03-29T06:01:54.574Z,98894.81
2023-03-29T06:03:03.695Z,98893.81
2023-03-29T06:04:14.519Z,98899.75
2023-03-29T06:05:17.434Z,98907.84
2023-03-29T06:06:21.524Z,98897.78
2023-03-29T06:07:24.750Z,98903.13
2023-03-29T06:08:28.813Z,98901.88
2023-03-29T06:09:32.381Z,98904.16
2023-03-29T06:10:37.739Z,98907.50
2023-03-29T06:11:40.988Z,98895.41
2023-03-29T06:12:45.286Z,98901.09
2023-03-29T06:13:52.091Z,98897.31
2023-03-29T06:14:58.421Z,98899.22
2023-03-29T06:16:01.902Z,98893.59
2023-03-29T06:17:05.451Z,98901.91
2023-03-29T06:18:08.579Z,98891.66
2023-03-29T06:19:11.536Z,98899.03
2023-03-29T06:20:15.176Z,98897.78
2023-03-29T06:21:18.313Z,98897.53
2023-03-29T06:22:21.568Z,98898.84
2023-03-29T06:23:25.126Z,98892.34
2023-03-29T06:24:28.312Z,98896.72
2023-03-29T06:25:32.081Z,98909.22
2023-03-29T06:26:35.462Z,98910.44
2023-03-29T06:27:38.692Z,98906.16
2023-03-29T06:28:42.299Z,98908.66
2023-03-29T06:29:45.937Z,98901.78
2023-03-29T06:30:49.582Z,98908.25
2023-03-29T06:31:54.450Z,98905.53
2023-03-29T06:32:59.571Z,98906.62
2023-03-29T06:34:04.952Z,98903.13
2023-03-29T06:35:08.278Z,98896.22
2023-03-29T06:36:12.189Z,98910.00
2023-03-29T06:37:15.155Z,98914.56
2023-03-29T06:38:18.405Z,98906.72
2023-03-29T06:39:21.621Z,98910.09
2023-03-29T06:40:25.203Z,98911.31
2023-03-29T06:41:28.287Z,98913.97
2023-03-29T06:42:31.258Z,98910.84
2023-03-29T06:43:35.097Z,98914.47
2023-03-29T06:44:38.425Z,98908.97
2023-03-29T06:45:41.301Z,98907.75
2023-03-29T06:46:44.569Z,98903.13
2023-03-29T06:47:47.699Z,98914.56
2023-03-29T06:48:50.565Z,98913.28
2023-03-29T06:49:53.394Z,98911.69
2023-03-29T06:50:56.629Z,98916.25
2023-03-29T06:52:00.316Z,98916.75
2023-03-29T06:53:04.573Z,98919.44
2023-03-29T06:54:07.724Z,98904.50
2023-03-29T06:55:12.208Z,98916.44
2023-03-29T06:56:15.148Z,98918.72
2023-03-29T06:57:19.006Z,98909.47
2023-03-29T06:58:22.264Z,98909.78
2023-03-29T06:59:26.036Z,98913.13
2023-03-29T07:00:28.957Z,98909.47
2023-03-29T07:01:33.315Z,98919.37
2023-03-29T07:02:36.199Z,98919.81
2023-03-29T07:03:39.648Z,98925.53
2023-03-29T07:04:43.316Z,98920.78
2023-03-29T07:05:52.349Z,98924.97
2023-03-29T07:07:04.442Z,98928.06
2023-03-29T07:08:08.273Z,98928.81
2023-03-29T07:09:13.493Z,98934.69
2023-03-29T07:10:16.954Z,98936.53
2023-03-29T07:11:20.670Z,98932.22
2023-03-29T07:12:24.157Z,98943.38
2023-03-29T07:13:27.908Z,98934.50
2023-03-29T07:14:31.094Z,98934.75
2023-03-29T07:15:34.147Z,98944.81
2023-03-29T07:16:37.965Z,98946.19
2023-03-29T07:17:41.332Z,98937.97
2023-03-29T07:18:45.198Z,98947.69
2023-03-29T07:19:49.276Z,98941.78
2023-03-29T07:20:52.674Z,98945.44
2023-03-29T07:21:56.763Z,98943.84
2023-03-29T07:22:59.875Z,98951.00
2023-03-29T07:24:04.881Z,98944.34
2023-03-29T07:25:09.715Z,98958.34
2023-03-29T07:26:13.158Z,98951.94
2023-03-29T07:27:16.496Z,98955.25
2023-03-29T07:28:20.293Z,98956.28
2023-03-29T07:29:23.762Z,98957.84
2023-03-29T07:30:31.628Z,98953.72
2023-03-29T07:31:41.115Z,98956.06
2023-03-29T07:32:46.812Z,98966.84
2023-03-29T07:33:53.004Z,98962.81
2023-03-29T07:34:56.102Z,98960.50
2023-03-29T07:36:02.452Z,98956.09
2023-03-29T07:37:06.720Z,98958.97
2023-03-29T07:38:10.248Z,98958.88
2023-03-29T07:39:13.910Z,98962.41
2023-03-29T07:40:20.013Z,98961.03
2023-03-29T07:41:23.174Z,98957.13
2023-03-29T07:42:26.840Z,98962.88
2023-03-29T07:43:29.769Z,98958.75
2023-03-29T07:44:33.830Z,98958.25
2023-03-29T07:45:37.291Z,98952.78
2023-03-29T07:46:40.334Z,98962.72
2023-03-29T07:47:46.491Z,98965.66
2023-03-29T07:48:49.359Z,98963.38
2023-03-29T07:49:52.139Z,98963.41
2023-03-29T07:50:55.189Z,98969.84
2023-03-29T07:51:58.678Z,98962.47
2023-03-29T07:53:03.206Z,98972.75
2023-03-29T07:54:06.771Z,98964.63
2023-03-29T07:55:12.108Z,98976.19
2023-03-29T07:56:15.049Z,98975.88
2023-03-29T07:57:18.105Z,98972.28
2023-03-29T07:58:22.069Z,98970.03
2023-03-29T07:59:25.066Z,98972.75
2023-03-29T08:00:28.564Z,98972.75
2023-03-29T08:01:34.399Z,98972.06
2023-03-29T08:02:38.236Z,98974.31
2023-03-29T08:03:42.618Z,98979.94
2023-03-29T08:04:46.237Z,98973.72
2023-03-29T08:05:49.216Z,98972.41
2023-03-29T08:06:52.591Z,98969.91
2023-03-29T08:07:55.469Z,98967.19
2023-03-29T08:08:58.643Z,98968.97
2023-03-29T08:10:01.572Z,98966.81
2023-03-29T08:11:04.959Z,98966.63
2023-03-29T08:12:08.038Z,98959.69
2023-03-29T08:13:11.306Z,98961.62
2023-03-29T08:14:14.263Z,98965.44
2023-03-29T08:15:17.268Z,98955.16
2023-03-29T08:16:20.170Z,98961.50
2023-03-29T08:17:22.987Z,98956.50
2023-03-29T08:18:26.433Z,98960.38
2023-03-29T08:19:29.308Z,98955.38
2023-03-29T08:20:32.856Z,98959.63
2023-03-29T08:21:35.864Z,98957.13
2023-03-29T08:22:39.519Z,98960.19
2023-03-29T08:23:42.361Z,98959.50
2023-03-29T08:24:45.153Z,98956.44
2023-03-29T08:25:48.108Z,98958.94
2023-03-29T08:26:51.081Z,98952.03
2023-03-29T08:27:54.618Z,98951.09
2023-03-29T08:28:57.853Z,98952.75
2023-03-29T08:30:00.935Z,98950.63
2023-03-29T08:31:04.313Z,98948.16
2023-03-29T08:32:07.604Z,98957.41
2023-03-29T08:33:10.653Z,98955.09
2023-03-29T08:34:14.469Z,98951.00
2023-03-29T08:35:17.519Z,98951.59
2023-03-29T08:36:20.569Z,98949.63
2023-03-29T08:37:25.966Z,98952.34
2023-03-29T08:38:29.293Z,98948.06
2023-03-29T08:39:33.385Z,98958.78
2023-03-29T08:40:36.985Z,98952.81
2023-03-29T08:42:04.900Z,98951.72
2023-03-29T08:43:35.038Z,98950.97
2023-03-29T08:44:51.286Z,98948.38
2023-03-29T08:45:53.994Z,98949.03
2023-03-29T08:47:19.521Z,98942.50
2023-03-29T08:48:28.886Z,98939.97
2023-03-29T08:49:32.370Z,98944.22
2023-03-29T08:50:50.630Z,98942.25
2023-03-29T08:51:59.312Z,98938.41
2023-03-29T08:53:15.781Z,98930.88
2023-03-29T08:54:27.383Z,98937.34
2023-03-29T08:55:43.115Z,98947.44
2023-03-29T08:56:47.985Z,98938.75
2023-03-29T08:57:52.117Z,98929.84
2023-03-29T08:58:58.026Z,98929.91
2023-03-29T09:00:05.716Z,98934.84
2023-03-29T09:01:11.773Z,98931.56
2023-03-29T09:02:25.232Z,98930.91
2023-03-29T09:03:35.858Z,98919.28
2023-03-29T09:04:40.650Z,98927.22
2023-03-29T09:05:49.320Z,98932.13
2023-03-29T09:06:53.066Z,98924.69
2023-03-29T09:07:56.357Z,98927.91
2023-03-29T09:08:59.443Z,98920.34
2023-03-29T09:10:03.773Z,98925.84
2023-03-29T09:11:24.986Z,98914.06
2023-03-29T09:12:37.857Z,98916.16
2023-03-29T09:14:08.889Z,98914.59
2023-03-29T09:15:44.828Z,98908.31
2023-03-29T09:17:03.081Z,98917.38
2023-03-29T09:18:26.195Z,98915.66
2023-03-29T09:20:02.220Z,98913.28
2023-03-29T09:21:29.553Z,98902.69
2023-03-29T09:22:54.341Z,98911.00
2023-03-29T09:24:10.821Z,98910.91
2023-03-29T09:25:52.626Z,98910.87
2023-03-29T09:27:10.747Z,98900.69
2023-03-29T09:28:26.208Z,98902.13
2023-03-29T09:29:50.498Z,98901.94
2023-03-29T09:31:06.519Z,98907.56
2023-03-29T09:32:57.665Z,98896.28
2023-03-29T09:34:15.948Z,98895.72
2023-03-29T09:35:31.258Z,98902.22
2023-03-29T09:36:52.839Z,98901.16
2023-03-29T09:37:56.993Z,98895.34
2023-03-29T09:39:00.850Z,98898.16
2023-03-29T09:40:11.610Z,98900.00
2023-03-29T09:41:23.841Z,98895.66
2023-03-29T09:42:31.302Z,98892.53
2023-03-29T09:43:38.126Z,98906.91
2023-03-29T09:44:47.697Z,98900.62
2023-03-29T09:45:58.588Z,98900.47
2023-03-29T09:47:09.562Z,98895.25
2023-03-29T09:48:15.350Z,98890.03
2023-03-29T09:49:25.006Z,98890.59
2023-03-29T09:50:38.822Z,98893.16
2023-03-29T09:51:43.320Z,98887.63
2023-03-29T09:52:46.691Z,98886.44
2023-03-29T09:53:50.165Z,98884.09
2023-03-29T09:54:53.564Z,98882.78
2023-03-29T09:55:56.865Z,98881.25
2023-03-29T09:57:00.540Z,98884.66
2023-03-29T09:58:15.545Z,98890.06
2023-03-29T09:59:18.618Z,98884.44
2023-03-29T10:00:22.614Z,98879.97
2023-03-29T10:01:39.004Z,98889.28
2023-03-29T10:02:42.240Z,98880.97
2023-03-29T10:03:50.510Z,98878.72
2023-03-29T10:05:03.834Z,98878.34
2023-03-29T10:06:11.142Z,98874.19
2023-03-29T10:07:20.843Z,98873.22
2023-03-29T10:08:28.126Z,98874.25
2023-03-29T10:09:32.757Z,98868.72
2023-03-29T10:10:37.077Z,98876.94
2023-03-29T10:11:39.998Z,98873.16
2023-03-29T10:12:51.240Z,98872.56
2023-03-29T10:13:57.016Z,98872.56
2023-03-29T10:15:01.242Z,98868.28
2023-03-29T10:16:09.470Z,98871.31
2023-03-29T10:17:24.872Z,98873.50
2023-03-29T10:18:30.185Z,98877.06
2023-03-29T10:19:35.844Z,98870.16
2023-03-29T10:20:40.900Z,98870.91
2023-03-29T10:21:43.792Z,98870.84
2023-03-29T10:22:50.352Z,98865.91
2023-03-29T10:24:02.199Z,98870.47
2023-03-29T10:25:12.925Z,98866.88
2023-03-29T10:26:29.845Z,98858.44
2023-03-29T10:27:36.053Z,98858.97
2023-03-29T10:28:39.215Z,98857.66
2023-03-29T10:29:43.470Z,98851.78
2023-03-29T10:30:55.136Z,98857.00
2023-03-29T10:31:58.332Z,98854.81
2023-03-29T10:33:02.093Z,98856.25
2023-03-29T10:34:07.142Z,98854.81
2023-03-29T10:35:15.972Z,98857.50
2023-03-29T10:36:19.738Z,98849.25
2023-03-29T10:37:24.097Z,98844.00
2023-03-29T10:38:29.857Z,98851.44
2023-03-29T10:39:36.048Z,98846.59
2023-03-29T10:40:45.884Z,98839.59
2023-03-29T10:41:52.787Z,98843.84
2023-03-29T10:43:00.436Z,98843.37
2023-03-29T10:44:05.238Z,98856.69
2023-03-29T10:45:28.449Z,98845.06
2023-03-29T10:46:42.932Z,98847.63
2023-03-29T10:47:46.288Z,98845.50
2023-03-29T10:48:52.246Z,98846.56
2023-03-29T10:49:59.221Z,98843.47
2023-03-29T10:51:04.588Z,98844.03
2023-03-29T10:52:09.612Z,98841.87
2023-03-29T10:53:27.210Z,98837.19
2023-03-29T10:54:31.394Z,98836.28
2023-03-29T10:55:53.437Z,98834.66
2023-03-29T10:57:00.654Z,98837.19
2023-03-29T10:58:15.758Z,98835.97
2023-03-29T10:59:53.752Z,98836.22
2023-03-29T11:00:57.953Z,98838.75
2023-03-29T11:02:14.629Z,98828.88
2023-03-29T11:03:40.679Z,98833.09
2023-03-29T11:05:00.370Z,98836.44
2023-03-29T11:06:14.611Z,98836.75
2023-03-29T11:07:32.783Z,98834.84
2023-03-29T11:08:42.488Z,98837.38
2023-03-29T11:10:13.317Z,98833.56
2023-03-29T11:11:36.409Z,98833.50
2023-03-29T11:12:45.540Z,98832.12
2023-03-29T11:14:30.194Z,98830.59
2023-03-29T11:16:06.028Z,98827.37
2023-03-29T11:17:24.266Z,98823.50
2023-03-29T11:19:04.031Z,98819.22
2023-03-29T11:20:21.902Z,98810.75
2023-03-29T11:21:37.490Z,98821.78
2023-03-29T11:23:05.180Z,98824.50
2023-03-29T11:24:28.128Z,98820.19
2023-03-29T11:25:46.217Z,98822.00
2023-03-29T11:26:52.188Z,98819.81
2023-03-29T11:28:00.344Z,98821.38
2023-03-29T11:29:14.118Z,98815.12
2023-03-29T11:30:48.539Z,98820.50
2023-03-29T11:32:08.232Z,98817.94
2023-03-29T11:33:29.464Z,98813.50
2023-03-29T11:34:41.420Z,98813.53
2023-03-29T11:35:49.972Z,98809.41
2023-03-29T11:37:04.157Z,98814.84
2023-03-29T11:38:29.920Z,98809.38
2023-03-29T11:39:39.099Z,98809.44
2023-03-29T11:41:09.626Z,98805.09
2023-03-29T11:42:20.583Z,98800.34
2023-03-29T11:43:28.439Z,98802.97
2023-03-29T11:44:31.905Z,98802.28
2023-03-29T11:45:50.835Z,98802.56
2023-03-29T11:47:00.192Z,98804.00
2023-03-29T11:48:07.855Z,98799.53
2023-03-29T11:49:11.473Z,98798.63
2023-03-29T11:50:27.853Z,98794.09
2023-03-29T11:51:40.392Z,98797.69
2023-03-29T11:52:54.787Z,98794.31
2023-03-29T11:54:12.757Z,98791.59
2023-03-29T11:55:32.186Z,98794.75
2023-03-29T11:56:39.281Z,98791.44
2023-03-29T11:58:12.258Z,98788.44
2023-03-29T11:59:28.867Z,98791.53
2023-03-29T12:00:38.872Z,98785.81
2023-03-29T12:02:11.112Z,98786.03
2023-03-29T12:03:46.379Z,98777.22
2023-03-29T12:04:55.173Z,98781.87
2023-03-29T12:06:14.576Z,98774.19
2023-03-29T12:07:32.446Z,98770.38
2023-03-29T12:08:42.754Z,98766.25
2023-03-29T12:09:53.377Z,98765.31
2023-03-29T12:11:20.759Z,98762.19
2023-03-29T12:12:48.269Z,98760.47
2023-03-29T12:13:56.888Z,98772.59
2023-03-29T12:15:13.949Z,98767.97
2023-03-29T12:16:23.331Z,98764.75
2023-03-29T12:17:37.298Z,98752.22
2023-03-29T12:18:45.708Z,98755.03
2023-03-29T12:20:15.627Z,98759.44
2023-03-29T12:21:21.963Z,98759.13
2023-03-29T12:22:25.056Z,98755.41
2023-03-29T12:23:32.299Z,98748.69
2023-03-29T12:24:39.183Z,98752.03
2023-03-29T12:26:17.397Z,98746.19
2023-03-29T12:27:22.767Z,98741.19
2023-03-29T12:28:50.552Z,98732.66
2023-03-29T12:30:23.840Z,98745.91
2023-03-29T12:31:51.295Z,98738.19
2023-03-29T12:33:09.257Z,98746.03
2023-03-29T12:34:18.649Z,98741.41
2023-03-29T12:35:34.486Z,98743.63
2023-03-29T12:36:50.760Z,98735.00
2023-03-29T12:38:18.298Z,98730.47
2023-03-29T12:39:23.279Z,98727.38
2023-03-29T12:40:28.561Z,98724.47
2023-03-29T12:41:41.066Z,98729.38
2023-03-29T12:42:52.136Z,98725.72
2023-03-29T12:44:01.330Z,98725.31
2023-03-29T12:45:04.930Z,98721.66
2023-03-29T12:46:25.985Z,98722.00
2023-03-29T12:47:37.681Z,98725.41
2023-03-29T12:48:42.809Z,98729.38
2023-03-29T12:49:47.209Z,98728.34
2023-03-29T12:51:01.275Z,98736.97
2023-03-29T12:52:23.239Z,98729.09
2023-03-29T12:53:38.213Z,98735.75
2023-03-29T12:54:41.379Z,98728.75
2023-03-29T12:55:44.301Z,98727.09
2023-03-29T12:56:53.946Z,98733.19
2023-03-29T12:58:11.064Z,98730.06
2023-03-29T12:59:40.336Z,98729.16
2023-03-29T13:00:45.585Z,98727.31
2023-03-29T13:02:10.051Z,98731.19
2023-03-29T13:03:29.867Z,98731.62
2023-03-29T13:04:44.537Z,98725.47
2023-03-29T13:05:48.433Z,98724.34
2023-03-29T13:07:03.718Z,98719.03
2023-03-29T13:08:27.116Z,98716.84
2023-03-29T13:09:36.926Z,98721.78
2023-03-29T13:10:42.403Z,98716.22
2023-03-29T13:11:52.934Z,98720.00
2023-03-29T13:12:56.457Z,98711.94
2023-03-29T13:14:12.845Z,98708.25
2023-03-29T13:15:16.968Z,98709.25
2023-03-29T13:16:28.639Z,98707.50
2023-03-29T13:17:38.096Z,98706.63
2023-03-29T13:18:58.231Z,98704.94